Time;durP1;ratioP1;P1;durP2;ratioP2;P2;SDS_P1;SDS_P2;PMS_P1;PMS_P2;Temp;Humidity;BMP_temperature;BMP_pressure;BME280_temperature;BME280_humidity;BME280_pressure;Samples;Min_cycle;Max_cycle;Signal;HPM_P1;HPM_P2
2023/08/07 00:02:08;;;;;;;6.40;1.88;;;;;;;13.05;100.00;101110.53;4971539;28;20158;-74
2023/08/07 00:04:35;;;;;;;10.85;2.22;;;;;;;13.04;100.00;101119.41;4966233;28;20090;-74
2023/08/07 00:07:02;;;;;;;13.70;2.97;;;;;;;13.03;100.00;101106.19;4969456;28;20050;-74
2023/08/07 00:09:30;;;;;;;9.48;2.20;;;;;;;13.02;100.00;101113.28;4968900;28;20046;-73
2023/08/07 00:11:57;;;;;;;9.70;2.58;;;;;;;13.02;100.00;101104.50;4952295;28;20046;-73
2023/08/07 00:14:24;;;;;;;7.30;2.03;;;;;;;13.02;100.00;101101.84;4952669;28;20094;-73
2023/08/07 00:16:51;;;;;;;8.82;2.03;;;;;;;12.99;100.00;101101.97;4959265;28;20052;-74
2023/08/07 00:19:19;;;;;;;10.75;2.30;;;;;;;12.96;100.00;101081.78;4988894;28;20052;-74
2023/08/07 00:21:46;;;;;;;8.38;2.60;;;;;;;12.94;100.00;101106.53;4988688;28;20778;-73
2023/08/07 00:24:13;;;;;;;10.23;2.42;;;;;;;12.92;100.00;101097.81;4988491;28;20485;-73
2023/08/07 00:26:40;;;;;;;7.78;2.03;;;;;;;12.94;100.00;101104.78;4988473;28;20414;-74
2023/08/07 00:29:07;;;;;;;12.23;2.20;;;;;;;12.94;100.00;101107.41;4968162;28;20115;-73
2023/08/07 00:31:37;;;;;;;6.60;2.03;;;;;;;12.95;100.00;101095.91;4970402;28;20069;-74
2023/08/07 00:34:04;;;;;;;8.35;1.67;;;;;;;12.97;100.00;101112.56;4954805;28;20046;-74
2023/08/07 00:36:34;;;;;;;9.90;2.45;;;;;;;12.95;100.00;101101.22;4987721;28;20046;-75
2023/08/07 00:39:05;;;;;;;9.13;2.20;;;;;;;12.93;100.00;101097.75;4987762;28;20584;-76
2023/08/07 00:41:32;;;;;;;8.10;2.03;;;;;;;12.88;100.00;101099.69;4971240;28;20591;-76
2023/08/07 00:44:00;;;;;;;14.35;2.88;;;;;;;12.83;100.00;101101.63;4970690;28;20490;-77
2023/08/07 00:46:30;;;;;;;11.40;2.60;;;;;;;12.80;100.00;101104.38;4973790;28;20046;-76
2023/08/07 00:48:57;;;;;;;6.90;2.30;;;;;;;12.76;100.00;101102.78;4984839;28;20054;-78
2023/08/07 00:51:24;;;;;;;11.27;2.40;;;;;;;12.70;100.00;101111.81;4963230;28;20117;-75
2023/08/07 00:53:52;;;;;;;10.15;1.90;;;;;;;12.65;100.00;101109.31;4987873;28;20081;-75
2023/08/07 00:56:20;;;;;;;11.60;2.97;;;;;;;12.62;100.00;101112.06;4987256;28;20038;-77
2023/08/07 00:58:50;;;;;;;11.10;2.35;;;;;;;12.58;100.00;101113.06;4986629;28;20577;-77
2023/08/07 01:01:17;;;;;;;11.80;2.47;;;;;;;12.56;100.00;101118.41;4985969;28;20046;-77
2023/08/07 01:03:45;;;;;;;13.43;2.72;;;;;;;12.55;100.00;101124.63;4988707;28;20502;-78
2023/08/07 01:06:13;;;;;;;11.07;2.60;;;;;;;12.55;100.00;101123.78;4987960;28;20688;-78
2023/08/07 01:08:40;;;;;;;9.93;2.65;;;;;;;12.53;100.00;101118.50;4987036;28;20054;-78
2023/08/07 01:11:20;;;;;;;10.68;2.60;;;;;;;12.50;100.00;101125.69;4987118;28;20556;-77
2023/08/07 01:14:28;;;;;;;12.52;2.53;;;;;;;12.49;100.00;101129.25;4970677;28;20125;-77
2023/08/07 01:17:07;;;;;;;11.10;2.83;;;;;;;12.48;100.00;101127.50;4986951;28;20113;-77
2023/08/07 01:19:38;;;;;;;10.15;2.60;;;;;;;12.47;100.00;101131.94;4970968;28;20133;-77
2023/08/07 01:22:08;;;;;;;10.48;2.20;;;;;;;12.47;100.00;101124.03;4970202;28;20097;-76
2023/08/07 01:24:44;;;;;;;12.88;2.53;;;;;;;12.44;100.00;101124.13;4970350;28;20510;-76
2023/08/07 01:27:17;;;;;;;15.75;3.17;;;;;;;12.43;100.00;101128.56;4968934;28;20042;-76
2023/08/07 01:30:12;;;;;;;10.13;2.47;;;;;;;12.41;100.00;101130.38;4976566;28;20117;-76
2023/08/07 01:33:04;;;;;;;9.60;2.80;;;;;;;12.41;100.00;101124.25;4943823;28;20099;-75
2023/08/07 01:35:40;;;;;;;10.10;2.92;;;;;;;12.42;100.00;101133.88;4980913;28;20402;-75
2023/08/07 01:38:11;;;;;;;12.57;2.25;;;;;;;12.42;100.00;101131.22;4986582;28;20077;-76
2023/08/07 01:40:41;;;;;;;9.75;2.38;;;;;;;12.42;100.00;101139.16;4970188;28;20060;-75
2023/08/07 01:43:09;;;;;;;11.23;2.45;;;;;;;12.43;100.00;101138.25;4986132;28;20054;-75
2023/08/07 01:45:36;;;;;;;13.38;2.35;;;;;;;12.45;100.00;101144.34;4990980;28;20081;-74
2023/08/07 01:48:04;;;;;;;11.18;2.25;;;;;;;12.46;100.00;101142.59;4996687;28;20522;-74
2023/08/07 01:50:31;;;;;;;11.48;2.63;;;;;;;12.45;100.00;101148.78;4989094;28;20050;-74
2023/08/07 01:52:58;;;;;;;12.25;2.60;;;;;;;12.46;100.00;101143.44;4989689;28;20050;-75
2023/08/07 01:55:26;;;;;;;12.95;2.70;;;;;;;12.48;100.00;101141.63;4973439;28;20039;-75
2023/08/07 01:57:53;;;;;;;10.55;2.55;;;;;;;12.50;100.00;101130.97;4972791;28;20061;-74
2023/08/07 02:00:20;;;;;;;12.38;2.78;;;;;;;12.52;100.00;101155.59;4983620;28;20597;-75
2023/08/07 02:02:48;;;;;;;11.30;2.80;;;;;;;12.51;100.00;101146.81;4990495;28;20034;-75
2023/08/07 02:05:15;;;;;;;12.73;2.67;;;;;;;12.52;100.00;101151.16;4971079;28;20038;-75
2023/08/07 02:07:44;;;;;;;10.20;2.50;;;;;;;12.55;100.00;101159.00;4989500;28;20049;-75
2023/08/07 02:10:11;;;;;;;14.38;2.85;;;;;;;12.57;100.00;101157.19;4990408;28;20099;-75
2023/08/07 02:12:38;;;;;;;11.20;2.90;;;;;;;12.58;100.00;101148.31;4990043;28;20077;-75
2023/08/07 02:15:08;;;;;;;9.85;2.33;;;;;;;12.60;100.00;101161.50;4991060;28;20045;-75
2023/08/07 02:17:38;;;;;;;12.40;2.83;;;;;;;12.61;100.00;101159.72;4990854;28;20046;-75
2023/08/07 02:20:06;;;;;;;8.88;2.35;;;;;;;12.63;100.00;101158.75;4972401;28;20046;-75
2023/08/07 02:22:33;;;;;;;7.07;2.00;;;;;;;12.64;100.00;101157.84;4973539;28;20105;-76
2023/08/07 02:25:00;;;;;;;10.75;2.47;;;;;;;12.66;100.00;101165.72;4990722;28;20137;-75
2023/08/07 02:27:27;;;;;;;6.97;2.13;;;;;;;12.68;100.00;101172.66;4957542;28;20089;-76
2023/08/07 02:29:54;;;;;;;9.25;2.20;;;;;;;12.70;100.00;101160.25;4957592;28;20524;-75
2023/08/07 02:32:23;;;;;;;7.35;1.92;;;;;;;12.67;100.00;101168.28;4973596;28;20101;-75
2023/08/07 02:34:52;;;;;;;15.00;2.55;;;;;;;12.67;100.00;101159.50;4973463;28;20136;-75
2023/08/07 02:37:20;;;;;;;10.05;2.45;;;;;;;12.68;100.00;101164.72;4978920;28;20051;-75
2023/08/07 02:39:48;;;;;;;6.50;2.05;;;;;;;12.68;100.00;101167.38;4966699;28;20580;-75
2023/08/07 02:42:16;;;;;;;12.25;2.25;;;;;;;12.68;100.00;101166.53;4989486;28;20150;-76
2023/08/07 02:44:43;;;;;;;9.18;2.38;;;;;;;12.68;100.00;101164.72;4973552;28;20104;-75
2023/08/07 02:47:10;;;;;;;9.18;2.63;;;;;;;12.72;100.00;101176.06;4988320;28;20065;-75
2023/08/07 02:49:38;;;;;;;8.60;1.85;;;;;;;12.72;100.00;101162.84;4974506;28;20042;-75
2023/08/07 02:52:06;;;;;;;11.10;2.35;;;;;;;12.73;100.00;101181.31;4990257;28;20533;-75
2023/08/07 02:54:33;;;;;;;8.85;2.38;;;;;;;12.73;100.00;101169.88;4989532;28;20038;-75
2023/08/07 02:57:00;;;;;;;6.45;2.13;;;;;;;12.73;100.00;101183.09;4972054;28;20112;-75
2023/08/07 02:59:27;;;;;;;8.80;2.50;;;;;;;12.72;100.00;101168.13;4987168;28;20054;-75
2023/08/07 03:01:54;;;;;;;8.65;2.25;;;;;;;12.70;100.00;101170.84;4989710;28;20745;-75
2023/08/07 03:04:21;;;;;;;8.82;1.92;;;;;;;12.69;100.00;101165.63;4989069;28;20042;-75
2023/08/07 03:06:48;;;;;;;8.05;2.28;;;;;;;12.66;100.00;101160.41;4987686;28;20038;-75
2023/08/07 03:09:15;;;;;;;7.13;2.35;;;;;;;12.65;100.00;101167.50;4990675;28;20055;-75
2023/08/07 03:11:42;;;;;;;10.05;2.30;;;;;;;12.62;100.00;101154.38;4987451;28;20050;-75
2023/08/07 03:14:09;;;;;;;11.15;2.50;;;;;;;12.61;100.00;101168.50;4968414;28;20061;-75
2023/08/07 03:16:36;;;;;;;12.68;2.63;;;;;;;12.64;100.00;101170.19;4964381;28;20552;-75
2023/08/07 03:19:03;;;;;;;6.40;2.03;;;;;;;12.65;100.00;101161.34;4989408;28;20042;-75
2023/08/07 03:21:31;;;;;;;8.25;2.45;;;;;;;12.65;100.00;101170.16;4971588;28;20053;-75
2023/08/07 03:23:58;;;;;;;7.72;2.38;;;;;;;12.65;100.00;101162.22;4989728;28;20120;-75
2023/08/07 03:26:25;;;;;;;10.13;2.50;;;;;;;12.66;100.00;101156.00;4971331;28;20585;-75
2023/08/07 03:28:52;;;;;;;10.65;2.70;;;;;;;12.66;100.00;101168.34;4970840;28;20046;-75
2023/08/07 03:31:20;;;;;;;11.98;2.65;;;;;;;12.68;100.00;101158.59;4989111;28;20054;-75
2023/08/07 03:33:48;;;;;;;9.73;2.47;;;;;;;12.70;100.00;101151.47;4972363;28;20122;-75
2023/08/07 03:36:17;;;;;;;7.90;2.58;;;;;;;12.68;100.00;101164.72;4972375;28;20111;-75
2023/08/07 03:38:44;;;;;;;12.30;3.10;;;;;;;12.67;100.00;101155.06;4968804;28;20105;-75
2023/08/07 03:41:12;;;;;;;13.93;3.15;;;;;;;12.68;100.00;101161.25;4971474;28;20054;-74
2023/08/07 03:43:41;;;;;;;13.93;3.15;;;;;;;12.70;100.00;101156.75;4970640;28;20046;-74
2023/08/07 03:46:08;;;;;;;13.45;3.30;;;;;;;12.71;100.00;101159.34;4979438;28;20318;-75
2023/08/07 03:48:35;;;;;;;10.70;2.53;;;;;;;12.71;100.00;101156.69;4966955;28;20054;-75
2023/08/07 03:51:16;;;;;;;12.02;3.33;;;;;;;12.73;100.00;101164.56;4971716;28;20078;-74
2023/08/07 03:53:49;;;;;;;13.85;2.88;;;;;;;12.74;100.00;101164.53;4970487;28;20467;-74
2023/08/07 03:56:16;;;;;;;17.60;3.00;;;;;;;12.76;100.00;101155.69;4971172;28;20049;-75
2023/08/07 03:58:43;;;;;;;12.80;2.97;;;;;;;12.75;100.00;101160.09;4970999;28;20109;-74
2023/08/07 04:01:11;;;;;;;14.77;2.97;;;;;;;12.75;100.00;101157.47;4972123;28;20590;-74
2023/08/07 04:03:40;;;;;;;8.68;2.78;;;;;;;12.77;100.00;101165.38;4969911;28;20042;-74
2023/08/07 04:06:07;;;;;;;9.30;2.75;;;;;;;12.79;100.00;101164.38;4971435;28;20757;-74
2023/08/07 04:08:35;;;;;;;9.30;3.22;;;;;;;12.79;100.00;101161.75;4987571;28;20051;-74
2023/08/07 04:11:04;;;;;;;13.15;2.45;;;;;;;12.81;100.00;101159.03;4971694;28;20043;-74
2023/08/07 04:13:34;;;;;;;10.32;2.58;;;;;;;12.79;100.00;101153.81;4969445;28;20034;-74
2023/08/07 04:16:04;;;;;;;15.23;2.78;;;;;;;12.79;100.00;101160.84;4989416;28;20042;-74
2023/08/07 04:18:33;;;;;;;14.93;3.38;;;;;;;12.78;100.00;101159.13;4963770;28;20133;-74
2023/08/07 04:21:02;;;;;;;14.35;3.70;;;;;;;12.75;100.00;101160.09;4969819;28;20393;-74
2023/08/07 04:23:33;;;;;;;12.50;3.20;;;;;;;12.72;100.00;101170.78;4959759;28;20053;-74
2023/08/07 04:26:00;;;;;;;16.52;3.47;;;;;;;12.68;100.00;101164.72;4988628;28;20039;-75
2023/08/07 04:28:30;;;;;;;11.55;3.33;;;;;;;12.65;100.00;101169.25;4970287;28;20030;-75
2023/08/07 04:30:57;;;;;;;10.25;3.10;;;;;;;12.61;100.00;101180.88;4971146;28;20057;-76
2023/08/07 04:33:25;;;;;;;13.43;3.35;;;;;;;12.56;100.00;101184.53;4988081;28;20042;-76
2023/08/07 04:35:52;;;;;;;14.75;3.15;;;;;;;12.52;100.00;101168.81;4970664;28;20520;-77
2023/08/07 04:38:20;;;;;;;11.25;3.20;;;;;;;12.49;100.00;101174.19;4970960;28;20536;-78
2023/08/07 04:40:49;;;;;;;14.80;3.50;;;;;;;12.46;100.00;101175.19;4986719;28;20046;-78
2023/08/07 04:43:19;;;;;;;13.68;3.50;;;;;;;12.42;100.00;101173.53;4984561;28;20525;-79
2023/08/07 04:45:47;;;;;;;11.65;3.35;;;;;;;12.41;100.00;101170.03;4991530;28;20038;-78
2023/08/07 04:48:15;;;;;;;11.30;3.00;;;;;;;12.40;100.00;101178.88;4986713;28;20520;-77
2023/08/07 04:50:42;;;;;;;17.85;3.70;;;;;;;12.38;100.00;101185.13;4987566;28;20050;-77
2023/08/07 04:53:09;;;;;;;13.52;3.35;;;;;;;12.39;100.00;101176.31;4969331;28;20042;-77
2023/08/07 04:55:36;;;;;;;10.20;3.05;;;;;;;12.37;100.00;101175.47;4971127;28;20042;-77
2023/08/07 04:58:03;;;;;;;15.45;3.20;;;;;;;12.36;100.00;101182.53;4969665;28;20149;-77
2023/08/07 05:00:30;;;;;;;10.63;2.70;;;;;;;12.36;100.00;101179.88;4986885;28;20042;-78
2023/08/07 05:02:58;;;;;;;9.60;3.50;;;;;;;12.37;100.00;101180.75;4986903;28;20077;-77
2023/08/07 05:05:25;;;;;;;13.20;3.30;;;;;;;12.39;100.00;101189.53;4964097;28;20071;-78
2023/08/07 05:07:55;;;;;;;12.40;3.53;;;;;;;12.41;100.00;101198.28;4987406;28;20130;-78
2023/08/07 05:10:22;;;;;;;9.77;3.15;;;;;;;12.42;100.00;101194.69;4988935;28;20058;-79
2023/08/07 05:12:55;;;;;;;12.43;3.38;;;;;;;12.44;100.00;101195.50;4985964;28;20066;-77
2023/08/07 05:15:25;;;;;;;11.50;3.20;;;;;;;12.45;100.00;101193.75;4971253;28;20042;-77
2023/08/07 05:17:53;;;;;;;9.68;2.55;;;;;;;12.46;100.00;101204.25;4987052;28;20054;-78
2023/08/07 05:20:20;;;;;;;11.48;3.28;;;;;;;12.47;100.00;101203.34;4991925;28;20046;-76
2023/08/07 05:22:48;;;;;;;11.77;3.00;;;;;;;12.50;100.00;101178.56;4974450;28;20046;-77
2023/08/07 05:25:16;;;;;;;10.40;3.50;;;;;;;12.51;100.00;101202.34;4991937;28;20058;-78
2023/08/07 05:27:47;;;;;;;12.18;3.28;;;;;;;12.52;100.00;101201.41;4990214;28;20050;-78
2023/08/07 05:30:14;;;;;;;13.77;3.38;;;;;;;12.54;100.00;101202.22;4992266;28;20049;-77
2023/08/07 05:32:41;;;;;;;9.43;2.90;;;;;;;12.55;100.00;101209.25;4989894;28;20046;-78
2023/08/07 05:35:09;;;;;;;15.95;3.20;;;;;;;12.57;100.00;101212.72;4988922;28;20056;-77
2023/08/07 05:37:36;;;;;;;10.35;2.75;;;;;;;12.58;100.00;101214.44;4991215;28;20414;-78
2023/08/07 05:40:06;;;;;;;10.65;2.88;;;;;;;12.58;100.00;101217.09;4990371;28;20635;-77
2023/08/07 05:42:34;;;;;;;14.05;3.53;;;;;;;12.60;100.00;101216.19;4973441;28;20146;-76
2023/08/07 05:45:01;;;;;;;11.07;3.25;;;;;;;12.59;100.00;101207.38;4973379;28;20581;-76
2023/08/07 05:47:28;;;;;;;12.93;3.35;;;;;;;12.59;100.00;101223.22;4991727;28;20050;-76
2023/08/07 05:49:55;;;;;;;13.30;3.60;;;;;;;12.63;100.00;101224.88;4989656;28;20038;-76
2023/08/07 05:52:22;;;;;;;12.98;3.22;;;;;;;12.68;100.00;101224.72;4972393;28;20133;-77
2023/08/07 05:54:49;;;;;;;7.97;2.88;;;;;;;12.70;100.00;101221.09;4990602;28;20197;-77
2023/08/07 05:57:18;;;;;;;12.82;3.45;;;;;;;12.73;100.00;101225.41;4990676;28;20043;-76
2023/08/07 05:59:45;;;;;;;9.07;3.03;;;;;;;12.76;100.00;101227.97;4971822;28;20117;-77
2023/08/07 06:02:12;;;;;;;10.85;3.40;;;;;;;12.76;100.00;101230.63;4989766;28;20053;-76
2023/08/07 06:04:40;;;;;;;9.95;3.40;;;;;;;12.74;100.00;101235.97;4989255;28;20124;-77
2023/08/07 06:07:08;;;;;;;10.95;3.47;;;;;;;12.74;100.00;101245.66;4991202;28;20137;-77
2023/08/07 06:09:36;;;;;;;13.80;3.50;;;;;;;12.75;100.00;101242.09;4974014;28;20462;-77
2023/08/07 06:12:04;;;;;;;13.30;3.85;;;;;;;12.73;100.00;101252.75;4989905;28;20474;-77
2023/08/07 06:14:31;;;;;;;13.32;3.47;;;;;;;12.76;100.00;101250.94;4990709;28;20042;-77
2023/08/07 06:17:00;;;;;;;11.30;3.30;;;;;;;12.79;100.00;101251.69;4989733;28;20832;-77
2023/08/07 06:19:27;;;;;;;11.65;3.20;;;;;;;12.82;100.00;101248.91;4972194;28;20050;-77
2023/08/07 06:21:59;;;;;;;10.90;3.40;;;;;;;12.82;100.00;101256.84;4989887;28;20176;-77
2023/08/07 06:24:28;;;;;;;15.30;3.65;;;;;;;12.85;100.00;101262.06;4973813;28;20136;-77
2023/08/07 06:26:55;;;;;;;12.65;3.63;;;;;;;12.86;100.00;101257.66;4973591;28;20037;-76
2023/08/07 06:29:22;;;;;;;18.58;3.72;;;;;;;12.87;100.00;101260.22;4989110;28;20129;-77
2023/08/07 06:31:49;;;;;;;13.02;4.05;;;;;;;12.87;100.00;101251.44;4973821;28;20042;-76
2023/08/07 06:34:17;;;;;;;15.65;3.50;;;;;;;12.91;100.00;101265.44;4972825;28;20526;-77
2023/08/07 06:36:44;;;;;;;11.85;3.63;;;;;;;12.89;100.00;101271.63;4990426;28;20156;-77
2023/08/07 06:39:11;;;;;;;10.50;3.70;;;;;;;12.88;100.00;101276.97;4990565;28;20582;-76
2023/08/07 06:41:39;;;;;;;14.13;4.53;;;;;;;12.88;100.00;101303.41;4989992;28;20926;-80
2023/08/07 06:44:07;;;;;;;12.88;4.10;;;;;;;12.89;100.00;101294.56;4972720;28;20512;-79
2023/08/07 06:46:34;;;;;;;12.05;2.45;;;;;;;12.91;100.00;101298.03;4989925;28;20174;-79
2023/08/07 06:49:02;;;;;;;10.45;2.83;;;;;;;12.95;100.00;101299.69;4990145;28;20105;-77
2023/08/07 06:51:29;;;;;;;7.18;2.17;;;;;;;12.99;100.00;101303.94;4972594;28;20054;-77
2023/08/07 06:53:56;;;;;;;8.00;2.67;;;;;;;13.01;100.00;101310.03;4969031;28;20623;-77
2023/08/07 06:56:24;;;;;;;6.47;2.55;;;;;;;13.06;100.00;101299.31;4971814;28;20073;-76
2023/08/07 06:58:51;;;;;;;6.43;2.38;;;;;;;13.07;100.00;101305.47;4970788;28;20066;-76
2023/08/07 07:01:18;;;;;;;10.70;2.88;;;;;;;13.08;100.00;101304.53;4972117;28;20125;-77
2023/08/07 07:03:46;;;;;;;7.53;2.63;;;;;;;13.09;100.00;101307.16;4990157;28;20038;-77
2023/08/07 07:06:14;;;;;;;11.40;2.88;;;;;;;13.10;100.00;101311.53;4988993;28;20058;-77
2023/08/07 07:08:41;;;;;;;13.18;2.85;;;;;;;13.11;100.00;101305.31;4991084;28;20671;-77
2023/08/07 07:11:08;;;;;;;7.85;2.40;;;;;;;13.10;100.00;101300.94;4989762;28;20105;-77
2023/08/07 07:13:36;;;;;;;10.20;2.90;;;;;;;13.13;100.00;101315.84;4956207;28;20034;-76
2023/08/07 07:16:03;;;;;;;9.07;2.83;;;;;;;13.15;100.00;101317.53;4973077;28;20042;-76
2023/08/07 07:18:30;;;;;;;8.73;2.40;;;;;;;13.18;100.00;101314.78;4972699;28;20048;-77
2023/08/07 07:20:59;;;;;;;7.00;2.45;;;;;;;13.18;100.00;101305.97;4972575;28;20049;-76
2023/08/07 07:23:28;;;;;;;13.43;3.00;;;;;;;13.26;100.00;101321.59;4970111;28;20045;-76
2023/08/07 07:25:55;;;;;;;9.35;2.72;;;;;;;13.33;100.00;101325.75;4971447;28;20044;-76
2023/08/07 07:28:22;;;;;;;8.75;1.95;;;;;;;13.35;100.00;101326.56;4987056;28;20101;-76
2023/08/07 07:30:50;;;;;;;5.28;1.90;;;;;;;13.38;100.00;101329.13;4988036;28;20100;-76
2023/08/07 07:33:17;;;;;;;6.60;1.77;;;;;;;13.43;100.00;101327.19;4972458;28;20475;-76
2023/08/07 07:35:45;;;;;;;8.43;2.13;;;;;;;13.51;100.00;101332.25;4987373;28;20049;-77
2023/08/07 07:38:12;;;;;;;6.88;2.28;;;;;;;13.68;100.00;101341.41;4977081;28;20491;-76
2023/08/07 07:40:39;;;;;;;9.65;2.75;;;;;;;13.87;100.00;101358.38;4985386;28;20046;-76
2023/08/07 07:43:06;;;;;;;9.45;2.78;;;;;;;14.09;100.00;101350.50;4987673;28;20043;-75
2023/08/07 07:45:35;;;;;;;9.88;3.00;;;;;;;14.24;100.00;101356.16;4970279;28;20061;-75
2023/08/07 07:48:04;;;;;;;11.05;3.05;;;;;;;14.36;100.00;101365.44;4987340;28;20078;-76
2023/08/07 07:50:31;;;;;;;15.68;3.20;;;;;;;14.51;100.00;101363.97;4971354;28;20061;-76
2023/08/07 07:52:58;;;;;;;13.07;2.65;;;;;;;14.59;100.00;101376.03;4988739;28;20069;-76
2023/08/07 07:55:26;;;;;;;9.57;2.95;;;;;;;14.57;100.00;101366.38;4986892;28;20052;-76
2023/08/07 07:57:54;;;;;;;10.43;3.15;;;;;;;14.50;100.00;101362.25;4953945;28;20488;-75
2023/08/07 08:00:26;;;;;;;9.32;3.00;;;;;;;14.51;100.00;101369.28;4984286;28;20042;-76
2023/08/07 08:02:53;;;;;;;9.05;2.70;;;;;;;14.69;100.00;101354.47;4971140;28;20125;-76
2023/08/07 08:05:21;;;;;;;8.88;2.25;;;;;;;14.96;99.26;101376.38;4987394;28;20042;-76
2023/08/07 08:07:48;;;;;;;9.70;3.25;;;;;;;15.16;98.32;101386.19;4972214;28;20723;-76
2023/08/07 08:10:15;;;;;;;8.73;3.15;;;;;;;15.10;99.06;101382.94;4987426;28;20062;-76
2023/08/07 08:12:42;;;;;;;12.23;3.38;;;;;;;15.08;99.70;101388.31;4981388;28;20045;-75
2023/08/07 08:15:10;;;;;;;10.13;2.70;;;;;;;14.95;99.11;101384.41;4987153;28;20058;-75
2023/08/07 08:17:37;;;;;;;9.13;2.70;;;;;;;14.85;98.62;101391.91;4988387;28;20062;-76
2023/08/07 08:20:06;;;;;;;9.27;2.63;;;;;;;14.79;98.73;101384.16;4971085;28;20050;-75
2023/08/07 08:22:33;;;;;;;10.05;2.78;;;;;;;14.76;99.40;101387.81;4989220;28;20117;-75
2023/08/07 08:25:01;;;;;;;8.60;2.40;;;;;;;14.71;99.54;101403.91;4987387;28;20050;-75
2023/08/07 08:27:28;;;;;;;8.30;2.30;;;;;;;14.64;97.04;101412.13;4988077;28;20035;-75
2023/08/07 08:29:56;;;;;;;9.90;2.30;;;;;;;14.44;97.43;101405.78;4986696;28;20530;-77
2023/08/07 08:32:23;;;;;;;11.25;2.88;;;;;;;14.27;99.52;101407.28;4987972;28;20042;-78
2023/08/07 08:34:50;;;;;;;16.98;3.03;;;;;;;14.13;100.00;101396.31;4969856;28;20046;-77
2023/08/07 08:37:17;;;;;;;10.02;2.50;;;;;;;14.02;100.00;101411.72;4988573;28;20705;-76
2023/08/07 08:39:44;;;;;;;10.90;2.75;;;;;;;13.89;100.00;101425.41;4988385;28;20573;-77
2023/08/07 08:42:17;;;;;;;15.13;3.65;;;;;;;13.86;100.00;101428.19;4988088;28;20045;-77
2023/08/07 08:44:53;;;;;;;11.95;3.25;;;;;;;13.91;100.00;101428.03;4969389;28;20132;-77
2023/08/07 08:47:26;;;;;;;13.02;3.10;;;;;;;13.96;100.00;101424.31;4973759;28;20042;-77
2023/08/07 08:50:07;;;;;;;14.45;3.58;;;;;;;14.06;100.00;101431.94;4986522;28;20046;-77
2023/08/07 08:52:38;;;;;;;10.10;3.40;;;;;;;14.18;100.00;101425.31;4970198;28;20058;-76
2023/08/07 08:55:06;;;;;;;11.93;3.42;;;;;;;14.35;100.00;101416.75;4966859;28;20448;-75
2023/08/07 08:57:34;;;;;;;11.68;3.20;;;;;;;14.48;100.00;101417.13;4959556;28;20043;-75
2023/08/07 09:00:06;;;;;;;12.05;3.55;;;;;;;14.68;100.00;101424.38;4985593;28;20109;-75
2023/08/07 09:02:34;;;;;;;11.77;3.38;;;;;;;14.93;100.00;101418.13;4970196;28;20042;-75
2023/08/07 09:05:04;;;;;;;12.50;3.33;;;;;;;15.24;100.00;101414.22;4977025;28;20093;-75
2023/08/07 09:07:32;;;;;;;9.23;3.35;;;;;;;15.55;98.22;101420.94;4974974;28;20051;-75
2023/08/07 09:10:03;;;;;;;11.30;3.47;;;;;;;15.94;98.33;101414.84;4981832;28;20066;-74
2023/08/07 09:12:33;;;;;;;9.77;2.65;;;;;;;16.06;90.06;101430.28;4987809;28;20059;-74
2023/08/07 09:15:04;;;;;;;8.30;2.60;;;;;;;16.28;88.02;101426.66;4967966;28;20105;-75
2023/08/07 09:17:39;;;;;;;11.63;2.42;;;;;;;16.39;87.35;101416.41;4987088;28;20054;-76
2023/08/07 09:20:13;;;;;;;7.75;1.98;;;;;;;16.62;86.23;101414.50;4966858;28;20051;-76
2023/08/07 09:22:41;;;;;;;9.45;2.67;;;;;;;16.80;85.11;101427.88;4982478;28;20129;-75
2023/08/07 09:25:09;;;;;;;12.13;3.10;;;;;;;16.77;87.38;101424.41;4969841;28;20094;-75
2023/08/07 09:27:38;;;;;;;9.68;2.20;;;;;;;16.74;85.48;101421.03;4969637;28;20417;-76
2023/08/07 09:30:09;;;;;;;9.65;2.45;;;;;;;16.77;83.45;101419.09;4986891;28;20049;-76
2023/08/07 09:32:38;;;;;;;5.35;2.03;;;;;;;16.90;81.09;101426.50;4969704;28;20050;-75
2023/08/07 09:35:08;;;;;;;6.32;1.98;;;;;;;16.90;80.31;101435.34;4969332;28;20038;-75
2023/08/07 09:37:36;;;;;;;9.13;1.70;;;;;;;16.95;75.92;101421.81;4954909;28;20038;-75
2023/08/07 09:40:05;;;;;;;7.53;1.80;;;;;;;16.96;74.05;101439.53;4970648;28;20050;-75
2023/08/07 09:42:32;;;;;;;12.82;2.55;;;;;;;16.92;75.11;101438.78;4987903;28;20105;-75
2023/08/07 09:45:00;;;;;;;11.63;2.45;;;;;;;17.01;76.45;101453.50;4987076;28;20635;-75
2023/08/07 09:47:28;;;;;;;6.95;1.80;;;;;;;17.15;73.81;101435.97;4987686;28;20050;-75
2023/08/07 09:49:56;;;;;;;6.53;2.15;;;;;;;17.17;73.81;101439.44;4986953;28;20053;-75
2023/08/07 09:52:25;;;;;;;8.07;1.70;;;;;;;17.20;71.80;101442.81;4970465;28;20058;-75
2023/08/07 09:54:57;;;;;;;9.45;2.03;;;;;;;17.31;72.13;101446.75;4970685;28;20043;-75
2023/08/07 09:57:24;;;;;;;7.68;2.00;;;;;;;17.35;71.65;101440.34;4986843;28;20070;-74
2023/08/07 09:59:51;;;;;;;9.45;1.88;;;;;;;17.58;73.75;101439.19;4986575;28;20054;-75
2023/08/07 10:02:20;;;;;;;10.00;2.10;;;;;;;17.87;68.35;101444.84;4987121;28;20046;-74
2023/08/07 10:04:50;;;;;;;8.50;1.67;;;;;;;18.16;67.51;101448.69;4988295;28;20054;-75
2023/08/07 10:07:19;;;;;;;6.22;1.55;;;;;;;18.33;67.41;101436.25;4991729;28;20069;-75
2023/08/07 10:09:47;;;;;;;8.07;1.95;;;;;;;18.36;69.25;101451.25;4991566;28;20125;-75
2023/08/07 10:12:17;;;;;;;4.72;1.73;;;;;;;18.25;65.83;101465.16;4991071;28;20081;-75
2023/08/07 10:14:45;;;;;;;7.38;1.80;;;;;;;18.04;65.16;101469.84;4990503;28;20075;-75
2023/08/07 10:17:13;;;;;;;6.90;1.55;;;;;;;17.79;67.35;101476.38;4987091;28;20476;-75
2023/08/07 10:19:40;;;;;;;3.38;1.23;;;;;;;17.61;66.71;101473.69;4954714;28;20053;-74
2023/08/07 10:22:07;;;;;;;9.77;1.60;;;;;;;17.43;68.40;101479.94;4971826;28;20047;-74
2023/08/07 10:24:40;;;;;;;7.13;1.90;;;;;;;17.39;69.23;101479.25;4971427;28;20051;-75
2023/08/07 10:27:13;;;;;;;8.30;1.98;;;;;;;17.54;70.33;101472.28;4954589;28;20043;-74
2023/08/07 10:29:42;;;;;;;8.50;2.10;;;;;;;17.74;70.90;101481.09;4990686;28;20166;-75
2023/08/07 10:32:10;;;;;;;10.38;2.30;;;;;;;17.83;71.49;101485.97;4988751;28;20050;-75
2023/08/07 10:34:38;;;;;;;7.57;1.45;;;;;;;17.94;68.87;101493.41;4988139;28;20718;-74
2023/08/07 10:37:08;;;;;;;7.25;1.75;;;;;;;17.95;67.36;101484.47;4988236;28;20046;-76
2023/08/07 10:39:35;;;;;;;6.72;1.60;;;;;;;18.03;67.60;101497.44;4972843;28;20057;-74
2023/08/07 10:42:04;;;;;;;6.97;2.00;;;;;;;17.98;69.52;101495.88;4989252;28;20116;-75
2023/08/07 10:44:33;;;;;;;9.60;1.85;;;;;;;17.96;67.85;101500.41;4973173;28;20069;-75
2023/08/07 10:47:01;;;;;;;8.63;2.05;;;;;;;17.91;70.04;101501.53;4990233;28;20062;-75
2023/08/07 10:49:40;;;;;;;6.22;1.80;;;;;;;17.90;68.89;101507.84;4990077;28;20496;-75
2023/08/07 10:52:15;;;;;;;7.20;1.70;;;;;;;17.98;67.50;101487.00;4989509;28;20086;-75
2023/08/07 10:54:49;;;;;;;8.95;1.83;;;;;;;18.17;68.63;101489.56;4989029;28;20521;-74
2023/08/07 10:57:18;;;;;;;9.27;1.77;;;;;;;18.40;66.36;101499.06;4988694;28;20125;-75
2023/08/07 10:59:55;;;;;;;10.30;2.08;;;;;;;18.77;66.23;101493.56;4972580;28;20140;-75
2023/08/07 11:02:29;;;;;;;8.75;2.10;;;;;;;18.84;67.93;101497.59;4989037;28;20042;-74
2023/08/07 11:04:56;;;;;;;;;;;;;;;18.85;65.77;101494.00;4972552;28;20053;-75
2023/08/07 11:07:29;;;;;;;5.75;1.80;;;;;;;18.89;66.10;101500.88;4972108;28;19925;-75
2023/08/07 11:09:58;;;;;;;5.97;1.60;;;;;;;19.21;63.40;101510.75;4988598;28;20042;-75
2023/08/07 11:12:28;;;;;;;4.85;1.67;;;;;;;19.27;61.55;101507.72;4990171;28;20096;-75
2023/08/07 11:14:59;;;;;;;17.10;2.50;;;;;;;19.31;63.67;101505.75;4986776;28;20049;-75
2023/08/07 11:17:28;;;;;;;5.25;1.70;;;;;;;19.30;62.36;101496.88;4989531;28;20046;-75
2023/08/07 11:19:56;;;;;;;5.55;1.27;;;;;;;19.42;60.68;101518.50;4953049;28;20065;-75
2023/08/07 11:22:25;;;;;;;7.53;1.40;;;;;;;19.26;60.38;101514.03;4970493;28;20071;-75